createdAt,value
2023-04-08T00:01:50.784Z,100063.81
2023-04-08T00:04:21.043Z,100058.50
2023-04-08T00:06:50.822Z,100064.56
2023-04-08T00:09:20.605Z,100066.97
2023-04-08T00:11:50.509Z,100065.69
2023-04-08T00:14:20.168Z,100062.19
2023-04-08T00:16:52.537Z,100070.53
2023-04-08T00:19:22.335Z,100080.16
2023-04-08T00:21:52.007Z,100083.13
2023-04-08T00:24:22.354Z,100083.41
2023-04-08T00:26:52.068Z,100081.47
2023-04-08T00:29:21.778Z,100076.56
2023-04-08T00:31:54.423Z,100079.78
2023-04-08T00:34:24.268Z,100080.94
2023-04-08T00:36:53.942Z,100090.28
2023-04-08T00:39:23.628Z,100089.09
2023-04-08T00:41:53.360Z,100095.59
2023-04-08T00:44:23.130Z,100087.19
2023-04-08T00:46:55.466Z,100095.25
2023-04-08T00:49:25.475Z,100087.38
2023-04-08T00:51:56.506Z,100087.63
2023-04-08T00:54:26.697Z,100079.84
2023-04-08T00:56:57.088Z,100079.22
2023-04-08T00:59:26.795Z,100080.53
2023-04-08T01:02:06.937Z,100082.88
2023-04-08T01:04:45.864Z,100085.13
2023-04-08T01:07:20.322Z,100084.41
2023-04-08T01:09:54.757Z,100084.88
2023-04-08T01:12:30.088Z,100082.47
2023-04-08T01:15:03.288Z,100083.81
2023-04-08T01:17:36.887Z,100078.34
2023-04-08T01:20:10.254Z,100080.53
2023-04-08T01:22:49.092Z,100074.47
2023-04-08T01:25:22.816Z,100070.00
2023-04-08T01:27:57.798Z,100064.75
2023-04-08T01:30:30.739Z,100075.38
2023-04-08T01:33:02.546Z,100089.59
2023-04-08T01:35:34.161Z,100083.19
2023-04-08T01:38:05.908Z,100088.09
2023-04-08T01:40:37.379Z,100082.03
2023-04-08T01:43:12.656Z,100091.66
2023-04-08T01:45:42.345Z,100089.59
2023-04-08T01:48:13.139Z,100100.25
2023-04-08T01:50:44.387Z,100103.97
2023-04-08T01:53:16.260Z,100097.56
2023-04-08T01:55:47.636Z,100099.38
2023-04-08T01:58:24.126Z,100096.03
2023-04-08T02:00:57.168Z,100106.47
2023-04-08T02:03:28.866Z,100106.19
2023-04-08T02:05:58.875Z,100115.81
2023-04-08T02:08:31.285Z,100103.50
2023-04-08T02:11:01.017Z,100108.91
2023-04-08T02:13:35.286Z,100111.41
2023-04-08T02:16:11.637Z,100099.97
2023-04-08T02:18:46.422Z,100098.63
2023-04-08T02:21:18.382Z,100112.34
2023-04-08T02:23:53.449Z,100107.28
2023-04-08T02:26:25.840Z,100102.69
2023-04-08T02:29:00.558Z,100111.72
2023-04-08T02:31:31.005Z,100111.81
2023-04-08T02:34:00.981Z,100098.22
2023-04-08T02:36:34.873Z,100098.84
2023-04-08T02:39:06.461Z,100099.44
2023-04-08T02:41:36.231Z,100097.34
2023-04-08T02:44:08.509Z,100095.16
2023-04-08T02:46:39.540Z,100105.44
2023-04-08T02:49:09.230Z,100109.50
2023-04-08T02:51:39.483Z,100112.34
2023-04-08T02:54:09.120Z,100114.94
2023-04-08T02:56:38.772Z,100118.25
2023-04-08T02:59:11.104Z,100122.84
2023-04-08T03:01:41.051Z,100116.09
2023-04-08T03:04:10.711Z,100115.75
2023-04-08T03:06:40.766Z,100130.94
2023-04-08T03:09:10.532Z,100132.75
2023-04-08T03:11:40.195Z,100132.38
2023-04-08T03:14:12.407Z,100129.19
2023-04-08T03:16:42.071Z,100134.63
2023-04-08T03:19:11.803Z,100126.09
2023-04-08T03:21:41.681Z,100136.69
2023-04-08T03:24:11.369Z,100144.72
2023-04-08T03:26:40.991Z,100143.44
2023-04-08T03:29:13.166Z,100143.25
2023-04-08T03:31:42.918Z,100142.56
2023-04-08T03:34:12.624Z,100142.94
2023-04-08T03:36:42.341Z,100146.78
2023-04-08T03:39:12.096Z,100149.31
2023-04-08T03:41:41.787Z,100156.44
2023-04-08T03:44:14.010Z,100158.66
2023-04-08T03:46:43.709Z,100154.63
2023-04-08T03:49:13.368Z,100147.50
2023-04-08T03:51:43.072Z,100160.78
2023-04-08T03:54:12.706Z,100154.13
2023-04-08T03:56:42.334Z,100147.34
2023-04-08T03:59:14.871Z,100152.19
2023-04-08T04:01:44.604Z,100143.50
2023-04-08T04:04:14.439Z,100151.91
2023-04-08T04:06:44.157Z,100169.72
2023-04-08T04:09:15.382Z,100156.41
2023-04-08T04:11:45.142Z,100176.00
2023-04-08T04:14:17.447Z,100183.97
2023-04-08T04:16:47.082Z,100178.06
2023-04-08T04:19:17.920Z,100178.88
2023-04-08T04:21:47.628Z,100185.94
2023-04-08T04:24:17.278Z,100174.03
2023-04-08T04:26:47.004Z,100177.00
2023-04-08T04:29:19.207Z,100175.53
2023-04-08T04:31:48.874Z,100174.31
2023-04-08T04:34:18.524Z,100171.91
2023-04-08T04:36:48.251Z,100180.84
2023-04-08T04:39:17.882Z,100190.22
2023-04-08T04:41:49.287Z,100194.75
2023-04-08T04:44:21.517Z,100196.03
2023-04-08T04:46:51.544Z,100192.84
2023-04-08T04:49:21.368Z,100189.13
2023-04-08T04:51:51.028Z,100194.91
2023-04-08T04:54:20.658Z,100191.09
2023-04-08T04:56:50.313Z,100203.19
2023-04-08T04:59:22.538Z,100198.00
2023-04-08T05:01:52.288Z,100212.63
2023-04-08T05:04:22.100Z,100210.72
2023-04-08T05:06:51.858Z,100208.22
2023-04-08T05:09:21.559Z,100215.66
2023-04-08T05:11:51.323Z,100223.63
2023-04-08T05:14:23.584Z,100218.84
2023-04-08T05:16:53.311Z,100222.16
2023-04-08T05:19:22.940Z,100230.25
2023-04-08T05:21:52.617Z,100221.75
2023-04-08T05:24:22.257Z,100229.50
2023-04-08T05:26:53.495Z,100232.41
2023-04-08T05:29:26.594Z,100228.16
2023-04-08T05:31:56.535Z,100227.72
2023-04-08T05:34:26.194Z,100232.19
2023-04-08T05:36:56.174Z,100228.56
2023-04-08T05:39:25.961Z,100229.88
2023-04-08T05:41:55.629Z,100239.72
2023-04-08T05:44:27.901Z,100246.56
2023-04-08T05:46:58.531Z,100246.19
2023-04-08T05:49:28.469Z,100252.41
2023-04-08T05:51:58.461Z,100256.69
2023-04-08T05:54:28.320Z,100255.94
2023-04-08T05:56:58.128Z,100250.69
2023-04-08T05:59:30.444Z,100252.47
2023-04-08T06:02:00.597Z,100253.31
2023-04-08T06:04:30.408Z,100260.41
2023-04-08T06:07:03.048Z,100263.28
2023-04-08T06:09:32.857Z,100257.91
2023-04-08T06:12:02.580Z,100265.00
2023-04-08T06:14:34.892Z,100270.75
2023-04-08T06:17:04.712Z,100278.28
2023-04-08T06:19:34.611Z,100268.66
2023-04-08T06:22:04.583Z,100272.88
2023-04-08T06:24:34.294Z,100279.53
2023-04-08T06:27:04.127Z,100280.78
2023-04-08T06:29:36.675Z,100285.06
2023-04-08T06:32:06.529Z,100295.13
2023-04-08T06:34:36.249Z,100282.28
2023-04-08T06:37:06.475Z,100284.59
2023-04-08T06:39:36.748Z,100289.19
2023-04-08T06:42:06.630Z,100299.06
2023-04-08T06:45:08.083Z,100282.91
2023-04-08T06:47:37.828Z,100277.91
2023-04-08T06:50:08.726Z,100296.50
2023-04-08T06:52:38.380Z,100288.41
2023-04-08T06:55:09.041Z,100296.81
2023-04-08T06:57:38.997Z,100292.91
2023-04-08T07:00:13.126Z,100305.44
2023-04-08T07:02:42.929Z,100310.84
2023-04-08T07:05:12.664Z,100306.34
2023-04-08T07:07:42.293Z,100312.22
2023-04-08T07:10:13.071Z,100306.34
2023-04-08T07:12:42.763Z,100315.78
2023-04-08T07:15:15.223Z,100326.00
2023-04-08T07:17:44.879Z,100326.84
2023-04-08T07:20:16.639Z,100329.91
2023-04-08T07:22:46.312Z,100330.91
2023-04-08T07:25:16.054Z,100335.81
2023-04-08T07:27:45.857Z,100339.84
2023-04-08T07:30:18.315Z,100338.38
2023-04-08T07:32:48.095Z,100336.81
2023-04-08T07:35:24.195Z,100337.66
2023-04-08T07:37:55.175Z,100342.97
2023-04-08T07:40:24.902Z,100349.44
2023-04-08T07:42:54.824Z,100354.66
2023-04-08T07:45:27.029Z,100354.47
2023-04-08T07:47:56.705Z,100357.56
2023-04-08T07:50:26.634Z,100356.50
2023-04-08T07:52:57.076Z,100363.66
2023-04-08T07:55:26.781Z,100365.94
2023-04-08T07:57:56.623Z,100375.75
2023-04-08T08:00:30.954Z,100379.94
2023-04-08T08:03:00.800Z,100389.03
2023-04-08T08:05:31.018Z,100389.53
2023-04-08T08:08:00.644Z,100381.03
2023-04-08T08:10:30.429Z,100381.41
2023-04-08T08:13:00.113Z,100384.97
2023-04-08T08:15:32.410Z,100396.97
2023-04-08T08:18:02.124Z,100378.22
2023-04-08T08:20:31.974Z,100378.31
2023-04-08T08:23:01.639Z,100372.94
2023-04-08T08:25:31.493Z,100360.88
2023-04-08T08:28:01.196Z,100365.03
2023-04-08T08:30:34.104Z,100361.78
2023-04-08T08:33:04.066Z,100372.81
2023-04-08T08:35:33.812Z,100369.72
2023-04-08T08:38:03.494Z,100378.16
2023-04-08T08:40:33.289Z,100385.34
2023-04-08T08:43:04.267Z,100392.69
2023-04-08T08:45:36.592Z,100398.03
2023-04-08T08:48:06.474Z,100398.91
2023-04-08T08:50:36.285Z,100408.13
2023-04-08T08:53:06.455Z,100420.06
2023-04-08T08:58:11.656Z,100423.81
2023-04-08T09:00:45.256Z,100423.63
2023-04-08T09:03:23.360Z,100412.53
2023-04-08T09:05:55.016Z,100423.09
2023-04-08T09:08:32.367Z,100431.94
2023-04-08T09:11:15.843Z,100429.25
2023-04-08T09:13:46.557Z,100430.31
2023-04-08T09:16:20.630Z,100436.59
2023-04-08T09:18:53.240Z,100433.41
2023-04-08T09:21:27.527Z,100439.50
2023-04-08T09:23:57.205Z,100446.34
2023-04-08T09:26:27.635Z,100449.31
2023-04-08T09:29:11.027Z,100452.13
2023-04-08T09:31:56.893Z,100435.06
2023-04-08T09:34:27.812Z,100442.41
2023-04-08T09:36:58.026Z,100436.78
2023-04-08T09:39:27.811Z,100441.88
2023-04-08T09:42:01.916Z,100452.16
2023-04-08T09:44:32.806Z,100458.47
2023-04-08T09:47:15.594Z,100443.06
2023-04-08T09:49:52.851Z,100455.34
2023-04-08T09:52:26.419Z,100446.41
2023-04-08T09:54:58.683Z,100459.34
2023-04-08T09:57:34.797Z,100460.00
2023-04-08T10:00:10.542Z,100464.69
2023-04-08T10:02:57.603Z,100452.75
2023-04-08T10:05:28.401Z,100447.22
2023-04-08T10:07:59.430Z,100439.81
2023-04-08T10:10:29.808Z,100436.38
2023-04-08T10:13:00.210Z,100429.88
2023-04-08T10:15:31.492Z,100430.25
2023-04-08T10:18:33.523Z,100418.84
2023-04-08T10:21:06.250Z,100423.03
2023-04-08T10:23:56.771Z,100427.78
2023-04-08T10:26:37.394Z,100425.41
2023-04-08T10:29:33.175Z,100418.16
2023-04-08T10:32:03.760Z,100423.16
2023-04-08T10:34:33.414Z,100438.25
2023-04-08T10:37:06.720Z,100451.41
2023-04-08T10:39:38.714Z,100458.69
2023-04-08T10:42:12.471Z,100461.09
2023-04-08T10:44:48.541Z,100463.03
2023-04-08T10:47:18.646Z,100452.38
2023-04-08T10:49:49.776Z,100453.13
2023-04-08T10:52:23.618Z,100453.44
2023-04-08T10:54:53.621Z,100452.31
2023-04-08T10:57:27.425Z,100448.38
2023-04-08T10:59:57.133Z,100448.16
2023-04-08T11:02:35.886Z,100447.81
2023-04-08T11:05:05.963Z,100449.25
2023-04-08T11:07:43.120Z,100449.25
2023-04-08T11:10:13.384Z,100440.09
2023-04-08T11:12:43.030Z,100436.63
2023-04-08T11:15:14.229Z,100438.88
2023-04-08T11:17:44.999Z,100434.13
2023-04-08T11:20:16.863Z,100437.19
2023-04-08T11:22:50.240Z,100440.81
2023-04-08T11:25:20.125Z,100453.56
2023-04-08T11:27:50.615Z,100456.50
2023-04-08T11:30:20.432Z,100463.25
2023-04-08T11:32:50.265Z,100458.63
2023-04-08T11:35:20.003Z,100461.13
2023-04-08T11:37:52.478Z,100470.13
2023-04-08T11:40:25.072Z,100464.63
2023-04-08T11:42:55.621Z,100472.63
2023-04-08T11:45:25.517Z,100480.94
2023-04-08T11:47:55.309Z,100477.94
2023-04-08T11:50:30.091Z,100486.41
2023-04-08T11:53:02.469Z,100486.41
2023-04-08T11:55:33.677Z,100482.31
2023-04-08T11:58:07.758Z,100473.69
2023-04-08T12:00:37.575Z,100479.59
2023-04-08T12:03:07.558Z,100476.13
2023-04-08T12:05:37.528Z,100470.53
2023-04-08T12:08:09.855Z,100468.03
2023-04-08T12:10:39.577Z,100477.78
2023-04-08T12:13:09.479Z,100479.31
2023-04-08T12:15:39.153Z,100486.09
2023-04-08T12:18:09.093Z,100487.25
2023-04-08T12:20:38.886Z,100490.25
2023-04-08T12:23:11.289Z,100500.09
2023-04-08T12:25:41.057Z,100500.31
2023-04-08T12:28:11.740Z,100494.88
2023-04-08T12:30:41.752Z,100490.13
2023-04-08T12:33:11.420Z,100491.53
2023-04-08T12:35:41.421Z,100483.22
2023-04-08T12:38:13.691Z,100483.00
2023-04-08T12:40:43.328Z,100483.75
2023-04-08T12:43:12.983Z,100480.75
2023-04-08T12:45:42.626Z,100482.16
2023-04-08T12:48:12.604Z,100480.94
2023-04-08T12:50:42.326Z,100481.16
2023-04-08T12:53:14.698Z,100484.38
2023-04-08T12:55:44.842Z,100489.25
2023-04-08T12:58:17.056Z,100492.66
2023-04-08T13:00:48.013Z,100505.19
2023-04-08T13:03:18.166Z,100509.19
2023-04-08T13:05:48.735Z,100502.63
2023-04-08T13:08:20.997Z,100505.66
2023-04-08T13:10:50.771Z,100506.59
2023-04-08T13:13:20.478Z,100503.81
2023-04-08T13:15:50.148Z,100509.03
2023-04-08T13:18:19.874Z,100520.19
2023-04-08T13:20:49.710Z,100509.59
2023-04-08T13:23:22.221Z,100515.22
2023-04-08T13:25:52.158Z,100518.16
2023-04-08T13:28:21.917Z,100515.41
2023-04-08T13:30:51.567Z,100511.81
2023-04-08T13:33:22.335Z,100513.22
2023-04-08T13:35:52.051Z,100520.94
2023-04-08T13:38:24.404Z,100519.84
2023-04-08T13:40:54.347Z,100527.78
2023-04-08T13:43:24.451Z,100521.47
2023-04-08T13:45:54.192Z,100528.78
2023-04-08T13:48:23.954Z,100524.34
2023-04-08T13:50:53.865Z,100521.03
2023-04-08T13:53:26.362Z,100527.31
2023-04-08T13:55:59.221Z,100513.38
2023-04-08T13:58:28.951Z,100513.59
2023-04-08T14:00:58.661Z,100529.88
2023-04-08T14:03:28.367Z,100521.06
2023-04-08T14:06:01.104Z,100530.78
2023-04-08T14:08:36.540Z,100518.34
2023-04-08T14:11:06.240Z,100521.19
2023-04-08T14:13:35.937Z,100520.63
2023-04-08T14:16:05.570Z,100519.47
2023-04-08T14:18:36.613Z,100510.00
2023-04-08T14:21:07.552Z,100508.69
2023-04-08T14:23:39.746Z,100508.91
2023-04-08T14:26:09.430Z,100514.28
2023-04-08T14:28:39.380Z,100516.50
2023-04-08T14:31:09.129Z,100516.75
2023-04-08T14:33:39.382Z,100513.38
2023-04-08T14:36:09.749Z,100519.78
2023-04-08T14:38:42.070Z,100509.78
2023-04-08T14:41:11.806Z,100512.44
2023-04-08T14:43:41.487Z,100494.63
2023-04-08T14:46:11.173Z,100484.22
2023-04-08T14:48:40.929Z,100478.78
2023-04-08T14:51:10.730Z,100461.72
2023-04-08T14:53:43.015Z,100469.69
2023-04-08T14:56:12.725Z,100479.91
2023-04-08T14:58:42.350Z,100489.09
2023-04-08T15:01:12.182Z,100494.22
2023-04-08T15:03:42.039Z,100494.78
2023-04-08T15:06:16.996Z,100502.69
2023-04-08T15:08:49.477Z,100505.59
2023-04-08T15:11:19.626Z,100506.47
2023-04-08T15:13:49.605Z,100503.66
2023-04-08T15:16:19.423Z,100514.56
2023-04-08T15:18:49.419Z,100512.00
2023-04-08T15:21:19.289Z,100518.06
2023-04-08T15:23:51.777Z,100506.75
2023-04-08T15:26:21.629Z,100494.25
2023-04-08T15:28:52.099Z,100500.16
2023-04-08T15:31:22.027Z,100499.19
2023-04-08T15:33:52.475Z,100490.56
2023-04-08T15:36:22.446Z,100501.66
2023-04-08T15:38:54.733Z,100500.06
2023-04-08T15:41:24.488Z,100499.78
2023-04-08T15:43:55.132Z,100502.25
2023-04-08T15:46:24.784Z,100507.88
2023-04-08T15:48:54.720Z,100504.63
2023-04-08T15:51:24.581Z,100514.22
2023-04-08T15:53:57.591Z,100513.19
2023-04-08T15:56:29.557Z,100509.50
2023-04-08T15:58:59.375Z,100517.31
2023-04-08T16:01:29.100Z,100509.38
2023-04-08T16:03:58.853Z,100515.88
2023-04-08T16:06:28.701Z,100517.66
2023-04-08T16:09:01.281Z,100516.75
2023-04-08T16:11:31.283Z,100520.69
2023-04-08T16:14:01.510Z,100520.66
2023-04-08T16:16:31.912Z,100516.00
2023-04-08T16:19:02.405Z,100514.34
2023-04-08T16:21:32.139Z,100501.41
2023-04-08T16:24:05.331Z,100501.00
2023-04-08T16:26:35.358Z,100495.16
2023-04-08T16:29:05.051Z,100490.84
2023-04-08T16:31:36.849Z,100497.91
2023-04-08T16:34:07.297Z,100502.81
2023-04-08T16:36:37.120Z,100500.31
2023-04-08T16:39:09.704Z,100497.13
2023-04-08T16:41:39.526Z,100502.47
2023-04-08T16:44:09.303Z,100499.28
2023-04-08T16:46:39.039Z,100502.53
2023-04-08T16:49:08.842Z,100505.41
2023-04-08T16:51:38.471Z,100505.16
2023-04-08T16:54:10.661Z,100507.38
2023-04-08T16:56:44.471Z,100504.25
2023-04-08T16:59:14.441Z,100510.09
2023-04-08T17:01:44.116Z,100516.34
2023-04-08T17:04:13.975Z,100523.00
2023-04-08T17:06:44.266Z,100522.34
2023-04-08T17:09:16.552Z,100525.75
2023-04-08T17:11:46.195Z,100525.69
2023-04-08T17:14:16.218Z,100529.66
2023-04-08T17:16:46.006Z,100525.00
2023-04-08T17:19:15.825Z,100523.47
2023-04-08T17:21:45.643Z,100520.75
2023-04-08T17:24:17.879Z,100519.59
2023-04-08T17:26:48.183Z,100510.84
2023-04-08T17:29:17.850Z,100510.13
2023-04-08T17:31:47.617Z,100504.63
2023-04-08T17:34:17.316Z,100515.66
2023-04-08T17:36:47.317Z,100514.34
2023-04-08T17:39:19.683Z,100515.47
2023-04-08T17:41:49.362Z,100522.41
2023-04-08T17:44:19.108Z,100525.50
2023-04-08T17:46:48.834Z,100521.00
2023-04-08T17:49:18.735Z,100527.34
2023-04-08T17:51:48.360Z,100529.00
2023-04-08T17:54:21.122Z,100521.81
2023-04-08T17:56:50.834Z,100523.84
2023-04-08T17:59:20.550Z,100520.28
2023-04-08T18:02:01.415Z,100527.56
2023-04-08T18:04:31.360Z,100529.84
2023-04-08T18:07:04.032Z,100524.84
2023-04-08T18:09:33.738Z,100533.19
2023-04-08T18:12:03.450Z,100543.09
2023-04-08T18:14:33.256Z,100548.97
2023-04-08T18:17:05.542Z,100553.34
2023-04-08T18:19:35.484Z,100550.63
2023-04-08T18:22:05.145Z,100551.38
2023-04-08T18:24:34.779Z,100555.63
2023-04-08T18:27:05.113Z,100554.34
2023-04-08T18:29:35.011Z,100568.13
2023-04-08T18:32:07.960Z,100565.53
2023-04-08T18:34:39.049Z,100568.81
2023-04-08T18:37:08.932Z,100590.03
2023-04-08T18:39:42.492Z,100595.41
2023-04-08T18:42:12.138Z,100597.66
2023-04-08T18:44:42.897Z,100602.09
2023-04-08T18:47:15.209Z,100601.63
2023-04-08T18:49:44.900Z,100614.09
2023-04-08T18:52:14.659Z,100616.22
2023-04-08T18:54:44.437Z,100614.88
2023-04-08T18:57:14.112Z,100617.81
2023-04-08T18:59:43.781Z,100623.63
2023-04-08T19:02:16.535Z,100612.09
2023-04-08T19:04:46.338Z,100610.16
2023-04-08T19:07:17.234Z,100622.28
2023-04-08T19:09:46.932Z,100614.94
2023-04-08T19:12:16.635Z,100617.50
2023-04-08T19:14:46.418Z,100623.34
2023-04-08T19:17:18.669Z,100631.72
2023-04-08T19:19:48.360Z,100627.50
2023-04-08T19:22:18.058Z,100630.47
2023-04-08T19:24:47.871Z,100634.47
2023-04-08T19:27:17.511Z,100641.78
2023-04-08T19:29:47.204Z,100638.00
2023-04-08T19:32:19.660Z,100641.78
2023-04-08T19:34:49.388Z,100649.72
2023-04-08T19:37:19.205Z,100651.66
2023-04-08T19:39:48.938Z,100646.34
2023-04-08T19:42:19.406Z,100645.75
2023-04-08T19:44:49.972Z,100646.59
2023-04-08T19:47:22.257Z,100643.97
2023-04-08T19:49:51.963Z,100641.34
2023-04-08T19:52:21.656Z,100637.78
2023-04-08T19:54:53.320Z,100646.81
2023-04-08T19:57:23.204Z,100654.75
2023-04-08T19:59:55.784Z,100650.47
2023-04-08T20:02:28.221Z,100639.44
2023-04-08T20:04:57.925Z,100640.53
2023-04-08T20:07:27.655Z,100643.88
2023-04-08T20:09:57.301Z,100640.09
2023-04-08T20:12:27.200Z,100640.97
2023-04-08T20:14:56.942Z,100645.78
2023-04-08T20:17:29.700Z,100647.16
2023-04-08T20:19:59.341Z,100642.00
2023-04-08T20:22:29.549Z,100651.28
2023-04-08T20:25:00.410Z,100630.50
2023-04-08T20:27:30.521Z,100633.19
2023-04-08T20:30:00.977Z,100639.28
2023-04-08T20:32:33.619Z,100639.63
2023-04-08T20:35:03.303Z,100647.53
2023-04-08T20:37:33.351Z,100640.13
2023-04-08T20:40:04.138Z,100647.66
2023-04-08T20:42:33.766Z,100648.06
2023-04-08T20:45:03.971Z,100635.94
2023-04-08T20:47:36.320Z,100630.88
2023-04-08T20:50:06.411Z,100615.84
2023-04-08T20:52:36.225Z,100628.81
2023-04-08T20:55:05.961Z,100632.34
2023-04-08T20:57:35.809Z,100636.88
2023-04-08T21:00:05.892Z,100637.19
2023-04-08T21:02:38.365Z,100627.88
2023-04-08T21:05:08.253Z,100635.00
2023-04-08T21:07:39.109Z,100619.09
2023-04-08T21:10:10.805Z,100635.69
2023-04-08T21:12:40.537Z,100638.03
2023-04-08T21:15:11.536Z,100642.63
2023-04-08T21:17:43.807Z,100634.91
2023-04-08T21:20:15.193Z,100622.88
2023-04-08T21:22:44.964Z,100641.19
2023-04-08T21:25:14.898Z,100650.13
2023-04-08T21:27:44.545Z,100652.09
2023-04-08T21:30:16.931Z,100665.44
2023-04-08T21:32:49.361Z,100652.22
2023-04-08T21:35:19.039Z,100652.88
2023-04-08T21:37:48.682Z,100663.44
2023-04-08T21:40:18.471Z,100663.53
2023-04-08T21:42:48.171Z,100668.03
2023-04-08T21:45:18.091Z,100663.56
2023-04-08T21:47:50.943Z,100663.41
2023-04-08T21:50:20.929Z,100678.97
2023-04-08T21:52:50.798Z,100673.91
2023-04-08T21:55:20.499Z,100677.66
2023-04-08T21:57:50.213Z,100690.75
2023-04-08T22:00:19.943Z,100679.63
2023-04-08T22:02:52.633Z,100686.88
2023-04-08T22:05:23.500Z,100695.81
2023-04-08T22:07:53.145Z,100690.78
2023-04-08T22:10:23.074Z,100686.59
2023-04-08T22:12:52.722Z,100680.91
2023-04-08T22:15:22.620Z,100680.31
2023-04-08T22:17:54.849Z,100671.50
2023-04-08T22:20:24.550Z,100678.22
2023-04-08T22:22:54.286Z,100676.75
2023-04-08T22:25:24.089Z,100676.31
2023-04-08T22:27:53.824Z,100671.47
2023-04-08T22:30:24.175Z,100666.81
2023-04-08T22:32:56.786Z,100662.66
2023-04-08T22:35:26.515Z,100663.50
2023-04-08T22:37:56.334Z,100662.31
2023-04-08T22:40:26.565Z,100661.00
2023-04-08T22:42:56.300Z,100669.75
2023-04-08T22:45:26.326Z,100655.94
2023-04-08T22:47:58.602Z,100663.03
2023-04-08T22:50:28.749Z,100657.47
2023-04-08T22:52:58.384Z,100660.22
2023-04-08T22:55:28.039Z,100656.28
2023-04-08T22:57:57.719Z,100645.84
2023-04-08T23:00:27.482Z,100632.47
2023-04-08T23:03:04.304Z,100640.09
2023-04-08T23:05:34.118Z,100625.66
2023-04-08T23:08:03.759Z,100632.38
2023-04-08T23:10:33.434Z,100635.91
2023-04-08T23:13:03.410Z,100640.53
2023-04-08T23:15:33.143Z,100654.94
2023-04-08T23:18:06.000Z,100668.56
2023-04-08T23:20:35.761Z,100681.13
2023-04-08T23:23:05.663Z,100681.38
2023-04-08T23:25:37.997Z,100673.09
2023-04-08T23:28:08.099Z,100661.28
2023-04-08T23:30:39.066Z,100651.28
2023-04-08T23:33:11.554Z,100641.81
2023-04-08T23:35:42.174Z,100643.28
2023-04-08T23:38:11.908Z,100645.34
2023-04-08T23:40:41.607Z,100638.69
2023-04-08T23:43:11.297Z,100635.50
2023-04-08T23:45:40.936Z,100642.91
2023-04-08T23:48:13.187Z,100630.28
2023-04-08T23:50:42.822Z,100622.50
2023-04-08T23:53:12.460Z,100625.00
2023-04-08T23:55:42.110Z,100624.63
2023-04-08T23:58:11.740Z,100635.03
